Time;durP1;ratioP1;P1;durP2;ratioP2;P2;SDS_P1;SDS_P2;PMS_P1;PMS_P2;Temp;Humidity;BMP_temperature;BMP_pressure;BME280_temperature;BME280_humidity;BME280_pressure;Samples;Min_cycle;Max_cycle;Signal;HPM_P1;HPM_P2
2022/12/28 00:01:23;;;;;;;15.55;5.85;;;5.70;99.90;;;;;;6113703;23;20018;-84
2022/12/28 00:03:49;;;;;;;11.70;5.00;;;5.80;99.90;;;;;;6113372;23;20018;-84
2022/12/28 00:06:16;;;;;;;14.00;4.53;;;5.80;99.90;;;;;;6116433;23;20104;-84
2022/12/28 00:08:42;;;;;;;10.68;3.65;;;5.90;99.90;;;;;;6114919;23;20022;-86
2022/12/28 00:11:12;;;;;;;10.63;4.65;;;5.90;99.90;;;;;;6113357;23;20021;-84
2022/12/28 00:13:38;;;;;;;11.35;4.47;;;5.90;99.90;;;;;;6115518;23;20018;-86
2022/12/28 00:16:17;;;;;;;14.98;5.30;;;5.90;99.90;;;;;;6116161;23;20361;-85
2022/12/28 00:18:43;;;;;;;9.40;4.35;;;5.80;99.90;;;;;;6118736;23;20030;-86
2022/12/28 00:21:09;;;;;;;10.88;5.10;;;5.90;99.90;;;;;;6115986;23;20293;-83
2022/12/28 00:23:34;;;;;;;12.13;5.57;;;5.80;99.90;;;;;;6118954;23;20338;-85
2022/12/28 00:26:08;;;;;;;9.00;5.53;;;5.90;99.90;;;;;;6118789;23;20021;-83
2022/12/28 00:28:34;;;;;;;10.50;4.78;;;5.90;99.90;;;;;;6116192;23;20037;-85
2022/12/28 00:30:59;;;;;;;11.07;5.68;;;6.00;99.90;;;;;;6115022;23;20025;-83
2022/12/28 00:33:25;;;;;;;15.43;5.50;;;6.00;99.90;;;;;;6118504;23;20026;-84
2022/12/28 00:35:58;;;;;;;9.13;5.03;;;6.00;99.90;;;;;;6115562;23;20072;-84
2022/12/28 00:38:24;;;;;;;;;;;6.00;99.90;;;;;;6117138;23;20386;-85
2022/12/28 00:40:50;;;;;;;11.60;5.40;;;6.00;99.90;;;;;;6116561;23;19916;-84
2022/12/28 00:43:16;;;;;;;13.57;5.40;;;6.00;99.90;;;;;;6115139;23;20022;-84
2022/12/28 00:45:47;;;;;;;12.02;4.82;;;6.00;99.90;;;;;;6118248;23;20332;-83
2022/12/28 00:48:13;;;;;;;17.17;6.07;;;6.10;99.90;;;;;;6114441;23;20052;-84
2022/12/28 00:50:39;;;;;;;12.55;5.60;;;6.00;99.90;;;;;;6111961;23;20362;-82
2022/12/28 00:53:05;;;;;;;18.48;6.28;;;6.00;99.90;;;;;;6118079;23;20021;-83
2022/12/28 00:55:35;;;;;;;12.57;5.80;;;6.00;99.90;;;;;;6116692;23;20029;-83
2022/12/28 00:58:02;;;;;;;10.05;5.18;;;6.00;99.90;;;;;;6116578;23;20351;-87
2022/12/28 01:00:28;;;;;;;11.73;5.07;;;6.10;99.90;;;;;;6115801;23;20026;-84
2022/12/28 01:02:54;;;;;;;10.50;5.30;;;6.10;99.90;;;;;;6114963;23;20113;-83
2022/12/28 01:05:20;;;;;;;16.35;6.40;;;6.10;99.90;;;;;;6115820;23;20112;-86
2022/12/28 01:07:46;;;;;;;14.68;6.55;;;6.10;99.90;;;;;;6118187;23;20712;-83
2022/12/28 01:10:11;;;;;;;11.95;6.30;;;6.10;99.90;;;;;;6119226;23;20034;-85
2022/12/28 01:12:37;;;;;;;21.48;7.05;;;6.10;99.90;;;;;;6116687;23;20021;-84
2022/12/28 01:15:04;;;;;;;13.52;7.10;;;6.10;99.90;;;;;;6112563;23;20022;-83
2022/12/28 01:17:30;;;;;;;11.50;6.57;;;6.10;99.90;;;;;;6116621;23;20527;-83
2022/12/28 01:19:56;;;;;;;11.43;6.70;;;6.10;99.90;;;;;;6118637;23;20205;-83
2022/12/28 01:22:21;;;;;;;12.98;6.90;;;6.10;99.90;;;;;;6118049;23;20028;-82
2022/12/28 01:24:47;;;;;;;17.95;7.45;;;6.00;99.90;;;;;;6116458;23;20025;-81
2022/12/28 01:27:13;;;;;;;16.27;6.35;;;6.10;99.90;;;;;;6116126;23;20025;-81
2022/12/28 01:29:39;;;;;;;12.38;6.63;;;6.10;99.90;;;;;;6115981;23;20026;-85
2022/12/28 01:32:04;;;;;;;14.75;7.47;;;6.10;99.90;;;;;;6115631;23;20018;-81
2022/12/28 01:34:30;;;;;;;16.58;7.72;;;6.10;99.90;;;;;;6116688;23;20014;-81
2022/12/28 01:36:56;;;;;;;11.80;6.88;;;6.10;99.90;;;;;;6118370;23;20410;-83
2022/12/28 01:39:21;;;;;;;15.90;7.85;;;6.10;99.90;;;;;;6116104;23;20101;-84
2022/12/28 01:41:47;;;;;;;15.00;8.70;;;6.10;99.90;;;;;;6120063;23;20466;-82
2022/12/28 01:44:13;;;;;;;14.10;8.32;;;6.10;99.90;;;;;;6115682;23;20441;-81
2022/12/28 01:46:45;;;;;;;16.80;9.25;;;6.10;99.90;;;;;;6113352;23;20117;-82
2022/12/28 01:49:19;;;;;;;16.52;8.25;;;6.10;99.90;;;;;;6116365;23;20477;-83
2022/12/28 01:51:53;;;;;;;17.65;9.57;;;6.10;99.90;;;;;;6091143;23;20029;-82
2022/12/28 01:54:23;;;;;;;14.18;7.95;;;6.20;99.90;;;;;;6090303;23;20117;-83
2022/12/28 01:56:50;;;;;;;15.32;8.18;;;6.10;99.90;;;;;;6092702;23;20069;-82
2022/12/28 01:59:20;;;;;;;21.75;9.40;;;6.10;99.90;;;;;;6092099;23;20467;-83
2022/12/28 02:01:45;;;;;;;18.85;10.68;;;6.20;99.90;;;;;;6113098;23;20026;-81
2022/12/28 02:04:11;;;;;;;13.85;8.35;;;6.20;99.90;;;;;;6090401;23;20021;-81
2022/12/28 02:06:37;;;;;;;17.20;8.80;;;6.20;99.90;;;;;;6090622;23;20022;-82
2022/12/28 02:09:12;;;;;;;17.10;9.38;;;6.30;99.90;;;;;;6114427;23;20507;-82
2022/12/28 02:11:38;;;;;;;19.05;9.48;;;6.30;99.90;;;;;;6087765;23;20037;-82
2022/12/28 02:14:05;;;;;;;23.20;9.20;;;6.20;99.90;;;;;;6116239;23;20018;-81
2022/12/28 02:16:30;;;;;;;14.20;9.10;;;6.20;99.90;;;;;;6089279;23;20018;-81
2022/12/28 02:18:56;;;;;;;19.23;8.68;;;6.20;99.90;;;;;;6092350;23;20014;-82
2022/12/28 02:21:25;;;;;;;15.40;8.23;;;6.20;99.90;;;;;;6087109;23;20022;-82
2022/12/28 02:24:18;;;;;;;15.95;9.27;;;6.20;99.90;;;;;;6090954;23;20065;-81
2022/12/28 02:26:51;;;;;;;17.77;9.82;;;6.30;99.90;;;;;;6091258;23;20301;-81
2022/12/28 02:29:32;;;;;;;17.63;10.40;;;6.20;99.90;;;;;;6087291;23;20198;-82
2022/12/28 02:32:22;;;;;;;17.15;9.63;;;6.30;99.90;;;;;;6089981;23;20458;-82
2022/12/28 02:35:09;;;;;;;21.42;11.73;;;6.30;99.90;;;;;;6088766;23;20042;-82
2022/12/28 02:37:59;;;;;;;16.98;8.63;;;6.30;99.90;;;;;;6083478;23;20025;-82
2022/12/28 02:40:36;;;;;;;17.63;9.82;;;6.30;99.90;;;;;;6111897;23;20017;-81
2022/12/28 02:43:02;;;;;;;13.02;9.10;;;6.20;99.90;;;;;;6082719;23;20481;-82
2022/12/28 02:51:03;;;;;;;21.52;10.85;;;6.30;99.90;;;;;;6118448;23;20041;-81
2022/12/28 02:53:53;;;;;;;21.98;10.52;;;6.30;99.90;;;;;;6118320;23;20026;-83
2022/12/28 02:56:36;;;;;;;22.63;10.68;;;6.30;99.90;;;;;;6116351;23;20029;-82
2022/12/28 02:59:20;;;;;;;19.35;10.38;;;6.30;99.90;;;;;;6119484;23;20038;-80
2022/12/28 03:02:09;;;;;;;24.60;11.57;;;6.30;99.90;;;;;;6114901;23;20390;-81
2022/12/28 03:05:07;;;;;;;17.90;12.00;;;6.30;99.90;;;;;;6118346;23;20022;-82
2022/12/28 03:08:18;;;;;;;18.90;11.77;;;6.30;99.90;;;;;;6100872;23;20477;-80
2022/12/28 03:11:03;;;;;;;21.60;11.43;;;6.20;99.90;;;;;;6113729;23;20022;-83
2022/12/28 03:13:57;;;;;;;18.83;10.85;;;6.30;99.90;;;;;;6114863;23;20022;-81
2022/12/28 03:25:41;;;;;;;21.17;12.35;;;6.30;99.90;;;;;;6115046;23;20061;-81
2022/12/28 03:33:09;;;;;;;19.75;11.20;;;6.40;99.90;;;;;;6113446;23;20018;-84
2022/12/28 03:36:07;;;;;;;20.20;12.43;;;6.30;99.90;;;;;;6120169;23;20052;-84
2022/12/28 03:39:08;;;;;;;21.77;13.77;;;6.40;99.90;;;;;;6114354;23;20022;-83
2022/12/28 03:41:37;;;;;;;24.80;13.88;;;6.40;99.90;;;;;;6111505;23;20406;-83
2022/12/28 03:44:19;;;;;;;26.42;13.90;;;6.40;99.90;;;;;;6116317;23;20093;-82
2022/12/28 03:46:54;;;;;;;22.75;14.20;;;6.40;99.90;;;;;;6113711;23;20093;-86
2022/12/28 03:49:22;;;;;;;21.50;12.75;;;6.40;99.90;;;;;;6116429;23;20249;-85
2022/12/28 03:51:49;;;;;;;26.80;15.35;;;6.40;99.90;;;;;;6115838;23;20210;-84
2022/12/28 03:54:16;;;;;;;15.27;10.32;;;6.50;99.90;;;;;;6091140;23;20064;-84
2022/12/28 03:56:47;;;;;;;21.58;13.25;;;6.50;99.90;;;;;;6087274;23;20030;-84
2022/12/28 03:59:14;;;;;;;20.80;13.30;;;6.50;99.90;;;;;;6114597;23;20097;-83
2022/12/28 04:01:39;;;;;;;23.98;14.10;;;6.60;99.90;;;;;;6088938;23;20462;-83
2022/12/28 04:04:05;;;;;;;24.10;13.68;;;6.50;99.90;;;;;;6116911;23;20029;-86
2022/12/28 04:06:31;;;;;;;23.50;13.90;;;6.50;99.90;;;;;;6115737;23;20386;-85
2022/12/28 04:08:56;;;;;;;17.48;10.88;;;6.60;99.90;;;;;;6091462;23;20474;-85
2022/12/28 04:11:22;;;;;;;23.60;14.60;;;6.70;99.90;;;;;;6089546;23;20076;-85
2022/12/28 04:13:47;;;;;;;20.50;13.45;;;6.60;99.90;;;;;;6092019;23;20034;-85
2022/12/28 04:16:14;;;;;;;19.50;12.55;;;6.70;99.90;;;;;;6091121;23;20034;-82
2022/12/28 04:18:43;;;;;;;16.48;11.07;;;6.70;99.90;;;;;;6092865;23;20474;-84
2022/12/28 04:21:10;;;;;;;18.83;12.60;;;6.70;99.90;;;;;;6114595;23;20124;-84
2022/12/28 04:23:36;;;;;;;17.35;11.30;;;6.70;99.90;;;;;;6116865;23;20386;-82
2022/12/28 04:26:11;;;;;;;19.63;13.23;;;6.80;99.90;;;;;;6117191;23;20021;-82
2022/12/28 04:28:37;;;;;;;23.45;13.38;;;6.70;99.90;;;;;;6092614;23;20354;-84
2022/12/28 04:31:04;;;;;;;22.27;13.07;;;6.90;99.90;;;;;;6091152;23;20024;-81
2022/12/28 04:33:35;;;;;;;20.33;13.77;;;6.90;99.90;;;;;;6090357;23;20526;-83
2022/12/28 04:36:19;;;;;;;21.90;13.02;;;6.80;99.90;;;;;;6089351;23;20026;-85
2022/12/28 04:38:44;;;;;;;22.30;14.18;;;6.90;99.90;;;;;;6090321;23;20021;-85
2022/12/28 04:41:11;;;;;;;28.48;15.32;;;6.90;99.90;;;;;;6087762;23;20240;-84
2022/12/28 04:43:38;;;;;;;21.75;13.25;;;6.90;99.90;;;;;;6119908;23;20033;-83
2022/12/28 04:46:07;;;;;;;13.80;8.55;;;6.90;99.90;;;;;;6117571;23;20030;-84
2022/12/28 04:48:33;;;;;;;23.75;13.20;;;6.90;99.90;;;;;;6095862;23;20026;-84
2022/12/28 04:51:07;;;;;;;20.50;10.95;;;6.90;99.90;;;;;;6118057;23;20018;-82
2022/12/28 04:53:37;;;;;;;21.25;12.73;;;6.90;99.90;;;;;;6116795;23;20530;-82
2022/12/28 04:56:04;;;;;;;14.82;10.52;;;7.00;99.90;;;;;;6113925;23;20785;-86
2022/12/28 04:58:30;;;;;;;18.95;12.95;;;7.00;99.90;;;;;;6119182;23;20033;-87
2022/12/28 05:01:07;;;;;;;23.50;13.07;;;6.90;99.90;;;;;;6118627;23;20014;-86
2022/12/28 05:03:34;;;;;;;19.15;12.95;;;7.00;99.90;;;;;;6114952;23;20022;-85
2022/12/28 05:06:06;;;;;;;21.85;13.45;;;7.00;99.90;;;;;;6116609;23;20053;-84
2022/12/28 05:08:32;;;;;;;18.58;11.80;;;7.20;99.90;;;;;;6116784;23;20020;-85
2022/12/28 05:11:03;;;;;;;17.20;10.00;;;7.20;99.90;;;;;;6115579;23;20414;-85
2022/12/28 05:13:29;;;;;;;18.48;8.90;;;7.20;99.90;;;;;;6114266;23;20025;-86
2022/12/28 05:15:54;;;;;;;19.90;11.30;;;7.40;99.90;;;;;;6115780;23;20029;-83
2022/12/28 05:18:20;;;;;;;16.88;8.63;;;7.40;99.90;;;;;;6113074;23;20481;-88
2022/12/28 05:20:46;;;;;;;17.40;9.48;;;7.60;99.90;;;;;;6115775;23;20025;-86
2022/12/28 05:23:11;;;;;;;10.25;6.95;;;7.60;99.90;;;;;;6118945;23;20041;-87
2022/12/28 05:25:37;;;;;;;15.93;8.50;;;7.70;99.90;;;;;;6115371;23;20037;-86
2022/12/28 05:28:03;;;;;;;18.67;10.45;;;7.80;99.90;;;;;;6116292;23;20431;-89
2022/12/28 05:30:28;;;;;;;23.00;11.60;;;7.70;99.90;;;;;;6117359;23;20022;-90
2022/12/28 05:32:54;;;;;;;15.85;7.15;;;7.80;99.90;;;;;;6114564;23;20413;-88
2022/12/28 05:35:20;;;;;;;15.30;9.02;;;7.90;99.90;;;;;;6116655;23;20044;-89
2022/12/28 05:37:45;;;;;;;17.30;9.57;;;7.90;99.90;;;;;;6117863;23;20456;-88
2022/12/28 05:40:11;;;;;;;15.10;8.93;;;7.90;99.90;;;;;;6119261;23;20481;-85
2022/12/28 05:42:36;;;;;;;24.52;9.82;;;8.00;99.90;;;;;;6117862;23;20022;-87
2022/12/28 05:45:02;;;;;;;18.95;5.97;;;8.00;99.90;;;;;;6117473;23;20022;-86
2022/12/28 05:47:28;;;;;;;9.05;5.25;;;8.10;99.90;;;;;;6116803;23;20033;-86
2022/12/28 05:49:54;;;;;;;15.90;8.15;;;8.00;99.90;;;;;;6119241;23;20057;-86
2022/12/28 05:52:19;;;;;;;14.90;7.60;;;8.10;99.90;;;;;;6114345;23;20052;-85
2022/12/28 05:54:45;;;;;;;10.48;5.88;;;8.10;99.90;;;;;;6089864;23;20026;-88
2022/12/28 05:57:10;;;;;;;13.98;8.23;;;8.10;99.90;;;;;;6091678;23;20485;-87
2022/12/28 05:59:36;;;;;;;14.60;6.57;;;8.20;99.90;;;;;;6090901;23;20041;-89
2022/12/28 06:02:02;;;;;;;14.77;7.00;;;8.10;99.90;;;;;;6116466;23;20029;-87
2022/12/28 06:04:27;;;;;;;10.25;4.95;;;8.20;99.90;;;;;;6093169;23;20034;-85
2022/12/28 06:06:53;;;;;;;11.38;6.88;;;8.20;99.90;;;;;;6115691;23;20041;-88
2022/12/28 06:09:20;;;;;;;17.40;8.55;;;8.20;99.90;;;;;;6117112;23;20024;-85
2022/12/28 06:11:45;;;;;;;14.48;7.80;;;8.20;99.90;;;;;;6116351;23;20030;-86
2022/12/28 06:14:11;;;;;;;7.78;5.45;;;8.20;99.90;;;;;;6090663;23;20094;-87
2022/12/28 06:16:39;;;;;;;16.85;8.40;;;8.20;99.90;;;;;;6089910;23;20029;-89
2022/12/28 06:19:07;;;;;;;10.43;5.93;;;8.30;99.90;;;;;;6091384;23;20032;-83
2022/12/28 06:21:34;;;;;;;11.40;6.93;;;8.30;99.90;;;;;;6088329;23;20022;-81
2022/12/28 06:24:01;;;;;;;13.88;8.73;;;8.30;99.90;;;;;;6092063;23;20018;-81
2022/12/28 06:26:28;;;;;;;15.40;7.25;;;8.20;99.90;;;;;;6118814;23;20022;-84
2022/12/28 06:28:54;;;;;;;10.88;5.53;;;8.30;99.90;;;;;;6119255;23;20041;-83
2022/12/28 06:31:26;;;;;;;16.60;8.95;;;8.30;99.90;;;;;;6115496;23;20022;-81
2022/12/28 06:33:53;;;;;;;17.92;9.00;;;8.20;99.90;;;;;;6093952;23;20053;-83
2022/12/28 06:36:22;;;;;;;21.60;9.50;;;8.30;99.90;;;;;;6093668;23;20358;-83
2022/12/28 06:38:49;;;;;;;10.73;5.85;;;8.30;99.90;;;;;;6119775;23;20458;-81
2022/12/28 06:41:17;;;;;;;17.38;8.32;;;8.30;99.90;;;;;;6092465;23;20022;-83
2022/12/28 06:43:44;;;;;;;12.18;7.15;;;8.40;99.90;;;;;;6092336;23;20571;-82
2022/12/28 06:46:18;;;;;;;14.23;8.23;;;8.30;99.90;;;;;;6116851;23;20125;-81
2022/12/28 06:48:44;;;;;;;24.13;8.90;;;8.30;99.90;;;;;;6103204;23;20550;-87
2022/12/28 06:51:21;;;;;;;23.20;8.90;;;8.40;99.90;;;;;;6118758;23;20026;-86
2022/12/28 06:53:49;;;;;;;17.83;7.57;;;8.40;99.90;;;;;;6118784;23;20409;-85
2022/12/28 06:56:17;;;;;;;25.98;8.45;;;8.40;99.90;;;;;;6120371;23;20089;-89
2022/12/28 06:58:44;;;;;;;18.15;9.38;;;8.40;99.90;;;;;;6115917;23;20018;-89
2022/12/28 07:01:12;;;;;;;19.38;9.32;;;8.50;99.90;;;;;;6117997;23;20026;-89
2022/12/28 07:03:38;;;;;;;25.15;9.90;;;8.40;99.90;;;;;;6118583;23;20037;-89
2022/12/28 07:06:05;;;;;;;13.38;5.32;;;8.50;99.90;;;;;;6123883;23;20030;-90
2022/12/28 07:08:31;;;;;;;23.15;8.93;;;8.40;99.90;;;;;;6124230;23;20022;-89
2022/12/28 07:11:18;;;;;;;19.48;7.03;;;8.40;99.90;;;;;;6123363;23;20354;-90
2022/12/28 07:13:43;;;;;;;15.75;7.50;;;8.40;99.90;;;;;;6122479;23;20022;-87
2022/12/28 07:16:20;;;;;;;22.70;8.18;;;8.50;99.90;;;;;;6120741;23;20021;-88
2022/12/28 07:18:46;;;;;;;25.42;8.25;;;8.40;99.90;;;;;;6121115;23;20022;-88
2022/12/28 07:21:16;;;;;;;16.17;6.85;;;8.40;99.90;;;;;;6123267;23;20536;-87
2022/12/28 07:23:42;;;;;;;20.63;7.35;;;8.50;99.90;;;;;;6116951;23;20092;-84
2022/12/28 07:26:10;;;;;;;26.77;8.68;;;8.50;99.90;;;;;;6117513;23;20327;-87
2022/12/28 07:28:40;;;;;;;16.35;6.18;;;8.50;99.90;;;;;;6120639;23;20089;-85
2022/12/28 07:31:08;;;;;;;27.48;7.95;;;8.50;99.90;;;;;;6120154;23;20037;-89
2022/12/28 07:33:35;;;;;;;18.63;6.53;;;8.50;99.90;;;;;;6123513;23;20022;-87
2022/12/28 07:36:02;;;;;;;21.40;8.65;;;8.50;99.90;;;;;;6121760;23;20025;-82
2022/12/28 07:38:28;;;;;;;23.98;7.25;;;8.50;99.90;;;;;;6126224;23;20045;-91
2022/12/28 07:41:10;;;;;;;17.98;7.47;;;8.50;99.90;;;;;;6124739;23;20458;-84
2022/12/28 07:43:36;;;;;;;21.98;8.57;;;8.50;99.90;;;;;;6120363;23;20471;-89
2022/12/28 07:46:04;;;;;;;16.80;4.82;;;8.50;99.90;;;;;;6120503;23;20298;-88
2022/12/28 07:48:31;;;;;;;13.30;6.70;;;8.60;99.90;;;;;;6122723;23;20458;-83
2022/12/28 07:50:57;;;;;;;21.08;9.13;;;8.60;99.90;;;;;;6121892;23;20601;-84
2022/12/28 07:53:22;;;;;;;20.05;8.35;;;8.50;99.90;;;;;;6117353;23;20066;-80
2022/12/28 07:56:07;;;;;;;15.68;7.72;;;8.50;99.90;;;;;;6095181;23;20033;-84
2022/12/28 07:58:33;;;;;;;21.85;9.10;;;8.50;99.90;;;;;;6119935;23;20021;-86
2022/12/28 08:01:13;;;;;;;21.38;9.38;;;8.50;99.90;;;;;;6121154;23;20040;-85
2022/12/28 08:03:39;;;;;;;26.73;9.20;;;8.40;99.90;;;;;;6096336;23;20026;-91
2022/12/28 08:06:11;;;;;;;16.92;8.70;;;8.50;99.90;;;;;;6125796;23;20073;-83
2022/12/28 08:08:39;;;;;;;18.73;9.27;;;8.40;99.90;;;;;;6121583;23;20029;-86
2022/12/28 08:11:10;;;;;;;14.93;6.65;;;8.40;99.90;;;;;;6121643;23;20025;-86
2022/12/28 08:13:38;;;;;;;11.23;5.60;;;8.50;99.90;;;;;;6099031;23;20025;-90
2022/12/28 08:16:05;;;;;;;18.10;7.13;;;8.50;99.90;;;;;;6092774;23;20030;-83
2022/12/28 08:18:31;;;;;;;12.32;5.72;;;8.50;99.90;;;;;;6115674;23;20032;-82
2022/12/28 08:21:02;;;;;;;13.38;4.93;;;8.50;99.90;;;;;;6115001;23;20450;-80
2022/12/28 08:23:29;;;;;;;16.98;5.50;;;8.50;99.90;;;;;;6088337;23;20520;-82
2022/12/28 08:25:55;;;;;;;15.90;7.07;;;8.50;99.90;;;;;;6118248;23;20022;-85
2022/12/28 08:28:21;;;;;;;16.63;8.07;;;8.40;99.90;;;;;;6089311;23;20022;-84
2022/12/28 08:30:46;;;;;;;16.02;8.95;;;8.40;99.90;;;;;;6119164;23;20021;-84
2022/12/28 08:33:12;;;;;;;11.18;6.03;;;8.40;99.90;;;;;;6114510;23;20041;-85
2022/12/28 08:35:37;;;;;;;10.93;5.82;;;8.40;99.90;;;;;;6119971;23;20026;-86
2022/12/28 08:38:03;;;;;;;8.27;5.20;;;8.50;99.90;;;;;;6093793;23;20022;-82
2022/12/28 08:40:29;;;;;;;12.07;4.20;;;8.50;99.90;;;;;;6117962;23;20029;-84
2022/12/28 08:42:58;;;;;;;11.40;5.53;;;8.50;99.90;;;;;;6094220;23;20089;-87
2022/12/28 08:45:24;;;;;;;11.85;5.50;;;8.60;99.90;;;;;;6092078;23;20025;-86
2022/12/28 08:47:50;;;;;;;10.40;5.22;;;8.50;99.90;;;;;;6092823;23;20470;-84
2022/12/28 08:50:16;;;;;;;13.70;5.43;;;8.50;99.90;;;;;;6120719;23;20048;-82
2022/12/28 08:52:41;;;;;;;10.43;4.90;;;8.50;99.90;;;;;;6091192;23;20078;-84
2022/12/28 08:55:07;;;;;;;14.18;5.40;;;8.40;99.90;;;;;;6089393;23;20097;-84
2022/12/28 08:57:33;;;;;;;15.80;5.20;;;8.40;99.90;;;;;;6093583;23;20607;-86
2022/12/28 08:59:58;;;;;;;12.68;5.25;;;8.40;99.90;;;;;;6091321;23;20522;-82
2022/12/28 09:02:24;;;;;;;16.83;5.68;;;8.30;99.90;;;;;;6090909;23;20045;-85
2022/12/28 09:04:50;;;;;;;13.13;5.68;;;8.40;99.90;;;;;;6088912;23;20101;-81
2022/12/28 09:07:15;;;;;;;10.57;5.47;;;8.50;99.90;;;;;;6091128;23;20033;-85
2022/12/28 09:09:41;;;;;;;10.73;6.03;;;8.40;99.90;;;;;;6118926;23;20024;-81
2022/12/28 09:12:07;;;;;;;12.63;6.43;;;8.60;99.90;;;;;;6089112;23;20067;-87
2022/12/28 09:14:32;;;;;;;12.75;6.80;;;8.60;99.90;;;;;;6116879;23;20358;-83
2022/12/28 09:16:59;;;;;;;12.98;6.57;;;8.60;99.90;;;;;;6089516;23;20018;-82
2022/12/28 09:19:25;;;;;;;12.00;5.47;;;8.70;99.90;;;;;;6117520;23;20025;-81
2022/12/28 09:21:54;;;;;;;7.80;4.32;;;8.70;99.90;;;;;;6121080;23;20030;-81
2022/12/28 09:24:21;;;;;;;12.13;5.43;;;8.80;99.90;;;;;;6120142;23;20022;-81
2022/12/28 09:26:47;;;;;;;9.07;4.55;;;8.90;99.90;;;;;;6121267;23;20025;-82
2022/12/28 09:29:13;;;;;;;7.97;4.20;;;8.90;99.90;;;;;;6115051;23;20021;-82
2022/12/28 09:31:40;;;;;;;7.85;4.22;;;8.90;99.90;;;;;;6117968;23;20089;-82
2022/12/28 09:34:10;;;;;;;8.10;3.85;;;9.00;99.90;;;;;;6118665;23;20454;-79
2022/12/28 09:36:38;;;;;;;3.67;2.03;;;9.00;99.90;;;;;;6118439;23;20029;-82
2022/12/28 09:39:12;;;;;;;5.97;3.10;;;9.00;99.90;;;;;;6113321;23;20470;-83
2022/12/28 09:41:48;;;;;;;6.40;3.38;;;9.00;99.90;;;;;;6116767;23;20033;-82
2022/12/28 09:44:46;;;;;;;7.07;3.10;;;9.00;99.90;;;;;;6091887;23;20109;-85
2022/12/28 09:47:22;;;;;;;6.45;3.22;;;9.00;99.90;;;;;;6085269;23;20022;-79
2022/12/28 09:50:15;;;;;;;10.18;5.32;;;9.00;99.90;;;;;;6115303;23;20213;-79
2022/12/28 09:52:53;;;;;;;7.93;4.80;;;8.90;99.90;;;;;;6114585;23;20116;-80
2022/12/28 09:55:19;;;;;;;10.85;5.50;;;8.90;99.90;;;;;;6118763;23;20505;-80
2022/12/28 09:57:49;;;;;;;7.05;5.28;;;8.90;99.90;;;;;;6118414;23;20038;-79
2022/12/28 10:00:18;;;;;;;12.38;7.18;;;9.00;99.90;;;;;;6121833;23;20018;-78
2022/12/28 10:02:50;;;;;;;10.63;6.55;;;8.90;99.90;;;;;;6121960;23;20593;-78
2022/12/28 10:05:16;;;;;;;9.40;6.50;;;8.90;99.90;;;;;;6121298;23;20022;-77
2022/12/28 10:07:42;;;;;;;8.15;5.90;;;8.90;99.90;;;;;;6121180;23;20367;-78
2022/12/28 10:10:15;;;;;;;7.50;5.70;;;8.90;99.90;;;;;;6121996;23;20033;-79
2022/12/28 10:12:42;;;;;;;11.75;6.22;;;8.90;99.90;;;;;;6117938;23;20026;-80
2022/12/28 10:15:12;;;;;;;15.25;6.70;;;8.90;99.90;;;;;;6119845;23;20026;-79
2022/12/28 10:17:38;;;;;;;10.07;5.55;;;9.00;99.90;;;;;;6120319;23;20075;-79
2022/12/28 10:20:06;;;;;;;8.23;5.47;;;8.90;99.90;;;;;;6121543;23;20017;-79
2022/12/28 10:22:38;;;;;;;12.43;6.93;;;8.90;99.90;;;;;;6124200;23;20024;-78
2022/12/28 10:25:18;;;;;;;8.45;5.95;;;8.80;99.90;;;;;;6122419;23;20018;-75
2022/12/28 10:27:44;;;;;;;14.90;8.68;;;8.80;99.90;;;;;;6120353;23;20049;-79
2022/12/28 10:30:20;;;;;;;20.98;10.75;;;8.80;99.90;;;;;;6122722;23;20021;-81
2022/12/28 10:32:54;;;;;;;10.88;7.65;;;8.90;99.90;;;;;;6119648;23;20478;-81
2022/12/28 10:35:28;;;;;;;19.70;9.88;;;8.80;99.90;;;;;;6121159;23;20026;-81
2022/12/28 10:38:03;;;;;;;17.20;10.02;;;8.90;99.90;;;;;;6121928;23;20061;-81
2022/12/28 10:40:35;;;;;;;20.63;9.52;;;8.80;99.90;;;;;;6123492;23;20052;-81
2022/12/28 10:43:02;;;;;;;16.88;8.65;;;8.90;99.90;;;;;;6120220;23;20037;-78
2022/12/28 10:45:38;;;;;;;18.70;7.15;;;8.90;99.90;;;;;;6122954;23;20350;-79
2022/12/28 10:48:13;;;;;;;14.30;8.20;;;9.00;99.90;;;;;;6120987;23;20030;-79
2022/12/28 10:50:56;;;;;;;15.10;7.15;;;9.00;99.90;;;;;;6120543;23;20026;-81
2022/12/28 10:53:31;;;;;;;22.17;10.30;;;9.00;99.90;;;;;;6123383;23;20053;-83
2022/12/28 10:56:11;;;;;;;20.83;9.70;;;9.10;99.90;;;;;;6120643;23;20052;-83
2022/12/28 10:58:48;;;;;;;16.40;7.65;;;9.10;99.90;;;;;;6122265;23;20426;-82
2022/12/28 11:01:13;;;;;;;19.00;8.82;;;9.10;99.90;;;;;;6120408;23;20025;-84
2022/12/28 11:03:57;;;;;;;16.33;9.30;;;9.00;99.90;;;;;;6119695;23;20036;-82
2022/12/28 11:06:25;;;;;;;17.50;10.15;;;9.10;99.90;;;;;;6119578;23;20497;-82
2022/12/28 11:09:02;;;;;;;18.27;9.80;;;8.90;99.90;;;;;;6119576;23;20083;-82
2022/12/28 11:11:28;;;;;;;17.27;9.10;;;8.90;99.90;;;;;;6117181;23;20074;-82
2022/12/28 11:14:11;;;;;;;15.90;8.93;;;8.90;99.90;;;;;;6118593;23;20395;-81
2022/12/28 11:16:39;;;;;;;13.02;8.05;;;8.90;99.90;;;;;;6117879;23;20018;-79
2022/12/28 11:19:05;;;;;;;12.05;6.05;;;8.80;99.90;;;;;;6118226;23;20037;-79
2022/12/28 11:21:32;;;;;;;14.55;8.02;;;8.90;99.90;;;;;;6116996;23;20026;-79
2022/12/28 11:23:58;;;;;;;11.15;6.35;;;8.80;99.90;;;;;;6118998;23;20534;-78
2022/12/28 11:26:27;;;;;;;8.68;5.20;;;8.80;99.90;;;;;;6117436;23;20053;-79
2022/12/28 11:28:53;;;;;;;11.55;7.55;;;8.80;99.90;;;;;;6117702;23;20077;-80
2022/12/28 11:31:36;;;;;;;10.15;5.32;;;8.80;99.90;;;;;;6116525;23;20420;-78
2022/12/28 11:34:05;;;;;;;12.02;6.47;;;8.80;99.90;;;;;;6117877;23;20537;-78
2022/12/28 11:36:37;;;;;;;12.27;7.25;;;8.80;99.90;;;;;;6120193;23;20017;-78
2022/12/28 11:39:25;;;;;;;10.57;7.35;;;8.80;99.90;;;;;;6118908;23;20632;-79
2022/12/28 11:41:55;;;;;;;12.45;7.60;;;8.80;99.90;;;;;;6119827;23;20096;-78
2022/12/28 11:44:50;;;;;;;10.57;7.35;;;8.80;99.90;;;;;;6116845;23;20022;-77
2022/12/28 11:47:15;;;;;;;10.73;8.27;;;8.80;99.90;;;;;;6113775;23;20044;-78
2022/12/28 11:49:42;;;;;;;15.70;9.60;;;8.90;99.90;;;;;;6120325;23;20518;-79
2022/12/28 11:52:19;;;;;;;13.20;9.68;;;8.80;99.90;;;;;;6119675;23;20022;-78
2022/12/28 11:54:56;;;;;;;14.30;9.02;;;8.90;99.90;;;;;;6118387;23;20077;-79
2022/12/28 11:57:42;;;;;;;13.85;10.13;;;8.90;99.90;;;;;;6117956;23;20425;-79
2022/12/28 12:00:19;;;;;;;11.50;8.75;;;8.80;99.90;;;;;;6116011;23;20159;-78
2022/12/28 12:02:59;;;;;;;15.73;11.27;;;8.70;99.90;;;;;;6115834;23;20118;-78
2022/12/28 12:05:34;;;;;;;14.40;9.90;;;8.80;99.90;;;;;;6118437;23;20029;-79
2022/12/28 12:08:01;;;;;;;8.35;5.90;;;8.80;99.90;;;;;;6118995;23;20084;-79
2022/12/28 12:10:33;;;;;;;11.52;8.27;;;8.80;99.90;;;;;;6119746;23;20109;-79
2022/12/28 12:13:00;;;;;;;13.70;9.18;;;8.80;99.90;;;;;;6118750;23;20022;-79
2022/12/28 12:15:46;;;;;;;9.27;7.78;;;8.80;99.90;;;;;;6119033;23;20564;-78
2022/12/28 12:18:25;;;;;;;10.45;8.27;;;8.80;99.90;;;;;;6115114;23;20057;-79
2022/12/28 12:21:07;;;;;;;9.98;7.40;;;8.80;99.90;;;;;;6126828;23;20419;-79
2022/12/28 12:23:40;;;;;;;12.88;8.88;;;8.80;99.90;;;;;;6088339;23;20316;-80
2022/12/28 12:26:19;;;;;;;15.07;10.18;;;8.80;99.90;;;;;;6123637;23;20068;-80
2022/12/28 12:28:51;;;;;;;13.40;10.20;;;8.80;99.90;;;;;;6116786;23;20454;-79
2022/12/28 12:31:46;;;;;;;14.80;10.98;;;8.80;99.90;;;;;;6119064;23;20021;-81
2022/12/28 12:34:28;;;;;;;9.98;6.40;;;8.80;99.90;;;;;;6115581;23;20667;-80
2022/12/28 12:37:05;;;;;;;14.98;9.52;;;8.80;99.90;;;;;;6092473;23;20122;-78
2022/12/28 12:40:08;;;;;;;13.82;9.88;;;8.70;99.90;;;;;;6118477;23;20021;-79
2022/12/28 12:42:56;;;;;;;13.85;9.80;;;8.70;99.90;;;;;;6092779;23;20587;-79
2022/12/28 12:45:48;;;;;;;11.15;8.30;;;8.70;99.90;;;;;;6075123;23;20386;-79
2022/12/28 12:48:37;;;;;;;11.77;7.85;;;8.70;99.90;;;;;;6094195;23;20652;-79
2022/12/28 12:51:11;;;;;;;12.25;8.23;;;8.70;99.90;;;;;;6118808;23;20068;-80
2022/12/28 12:54:08;;;;;;;10.95;8.05;;;8.70;99.90;;;;;;6118741;23;20022;-78
2022/12/28 12:57:15;;;;;;;11.88;8.07;;;8.60;99.90;;;;;;6120861;23;20026;-79
2022/12/28 13:00:00;;;;;;;13.25;8.23;;;8.50;99.90;;;;;;6089770;23;20555;-79
2022/12/28 13:02:47;;;;;;;10.18;7.65;;;8.60;99.90;;;;;;6066290;23;20022;-79
2022/12/28 13:05:20;;;;;;;16.08;9.85;;;8.60;99.90;;;;;;6108668;23;20030;-80
2022/12/28 13:07:47;;;;;;;15.85;8.52;;;8.50;99.90;;;;;;6119525;23;20018;-79
2022/12/28 13:10:18;;;;;;;12.57;9.20;;;8.50;99.90;;;;;;6120543;23;20500;-79
2022/12/28 13:12:43;;;;;;;14.40;9.02;;;8.50;99.90;;;;;;6120783;23;20077;-78
2022/12/28 13:15:17;;;;;;;12.25;8.02;;;8.50;99.90;;;;;;6118131;23;20026;-79
2022/12/28 13:18:00;;;;;;;8.35;6.85;;;8.50;99.90;;;;;;6119126;23;20032;-80
2022/12/28 13:20:27;;;;;;;13.75;8.13;;;8.60;99.90;;;;;;6119815;23;20358;-78
2022/12/28 13:22:54;;;;;;;8.73;5.93;;;8.50;99.90;;;;;;6118510;23;20033;-78
2022/12/28 13:25:27;;;;;;;9.77;5.20;;;8.60;99.90;;;;;;6115037;23;20410;-80